Time;durP1;ratioP1;P1;durP2;ratioP2;P2;SDS_P1;SDS_P2;PMS_P1;PMS_P2;Temp;Humidity;BMP_temperature;BMP_pressure;BME280_temperature;BME280_humidity;BME280_pressure;Samples;Min_cycle;Max_cycle;Signal;HPM_P1;HPM_P2
2021/07/30 00:01:56;;;;;;;10.88;4.45;;;;;;;17.14;54.14;100117.03;1708964;83;21969;-77
2021/07/30 00:04:22;;;;;;;10.25;3.83;;;;;;;17.10;54.28;100123.11;1724285;83;20983;-76
2021/07/30 00:06:48;;;;;;;8.68;4.10;;;;;;;17.06;54.41;100121.89;1707534;83;21018;-76
2021/07/30 00:09:14;;;;;;;6.12;3.77;;;;;;;17.01;54.55;100121.70;1711614;83;21007;-76
2021/07/30 00:11:41;;;;;;;7.17;4.10;;;;;;;16.94;54.68;100117.20;1724690;82;21016;-76
2021/07/30 00:14:07;;;;;;;8.03;4.08;;;;;;;16.91;54.83;100130.27;1724665;83;21875;-76
2021/07/30 00:16:34;;;;;;;10.43;4.25;;;;;;;16.89;54.95;100131.00;1717004;82;21035;-77
2021/07/30 00:19:01;;;;;;;8.43;4.58;;;;;;;16.85;55.05;100135.19;1696613;83;21043;-76
2021/07/30 00:21:27;;;;;;;10.60;4.62;;;;;;;16.83;55.19;100125.14;1702116;83;21546;-77
2021/07/30 00:23:53;;;;;;;9.25;4.47;;;;;;;16.81;55.32;100124.55;1717484;82;21012;-77
2021/07/30 00:26:19;;;;;;;8.68;4.20;;;;;;;16.82;55.42;100127.52;1704477;83;21182;-77
2021/07/30 00:28:45;;;;;;;9.93;5.00;;;;;;;16.83;55.54;100122.45;1704494;83;21494;-77
2021/07/30 00:31:11;;;;;;;10.03;4.90;;;;;;;16.83;55.67;100125.97;1709832;83;21004;-77
2021/07/30 00:33:37;;;;;;;7.80;4.17;;;;;;;16.85;55.79;100127.91;1709989;83;21074;-77
2021/07/30 00:36:04;;;;;;;11.20;4.45;;;;;;;16.88;55.91;100132.06;1707370;82;21043;-77
2021/07/30 00:38:30;;;;;;;7.87;4.60;;;;;;;16.91;55.99;100138.36;1694863;84;21167;-77
2021/07/30 00:40:56;;;;;;;10.50;4.42;;;;;;;16.93;56.09;100129.00;1694387;84;20999;-77
2021/07/30 00:43:22;;;;;;;7.67;3.95;;;;;;;16.97;56.19;100138.31;1695277;84;21499;-77
2021/07/30 00:45:48;;;;;;;7.28;3.62;;;;;;;16.98;56.28;100135.09;1695203;84;20980;-77
2021/07/30 00:48:14;;;;;;;4.45;3.77;;;;;;;16.99;56.39;100130.82;1695250;84;21059;-77
2021/07/30 00:50:43;;;;;;;7.10;4.33;;;;;;;16.99;56.49;100142.94;1695216;84;21090;-77
2021/07/30 00:53:09;;;;;;;9.63;5.60;;;;;;;16.99;56.57;100133.52;1668607;84;21042;-77
2021/07/30 00:55:36;;;;;;;16.00;8.63;;;;;;;17.02;56.67;100132.80;1695300;84;21062;-77
2021/07/30 00:58:02;;;;;;;17.20;9.23;;;;;;;17.07;56.73;100131.08;1669899;84;21461;-77
2021/07/30 01:00:28;;;;;;;15.08;9.30;;;;;;;17.11;56.78;100128.26;1695532;84;21031;-77
2021/07/30 01:02:54;;;;;;;14.05;5.87;;;;;;;17.14;56.84;100127.81;1695475;84;21172;-77
2021/07/30 01:05:21;;;;;;;12.85;5.72;;;;;;;17.15;56.88;100128.13;1695620;84;21002;-77
2021/07/30 01:07:47;;;;;;;9.05;5.05;;;;;;;17.18;56.94;100130.90;1695888;84;21468;-78
2021/07/30 01:10:13;;;;;;;7.50;5.05;;;;;;;17.20;56.97;100130.17;1669995;84;21055;-77
2021/07/30 01:12:39;;;;;;;8.68;4.90;;;;;;;17.19;57.04;100126.65;1696062;84;21082;-78
2021/07/30 01:15:06;;;;;;;6.72;4.90;;;;;;;17.19;57.08;100132.04;1695882;84;21225;-77
2021/07/30 01:17:32;;;;;;;8.08;5.28;;;;;;;17.18;57.13;100133.08;1695740;84;21048;-77
2021/07/30 01:19:58;;;;;;;17.57;7.35;;;;;;;17.18;57.17;100131.73;1696041;84;22019;-77
2021/07/30 01:22:29;;;;;;;12.70;7.78;;;;;;;17.16;57.24;100135.69;1695925;84;21043;-77
2021/07/30 01:24:56;;;;;;;13.00;6.83;;;;;;;17.14;57.30;100133.20;1695811;84;21030;-77
2021/07/30 01:27:22;;;;;;;8.90;5.40;;;;;;;17.13;57.35;100131.58;1695480;84;21154;-77
2021/07/30 01:29:48;;;;;;;15.50;6.85;;;;;;;17.10;57.41;100134.68;1696016;84;21026;-77
2021/07/30 01:32:15;;;;;;;12.18;7.62;;;;;;;17.08;57.49;100132.74;1695816;84;21478;-77
2021/07/30 01:34:42;;;;;;;10.85;5.20;;;;;;;17.07;57.53;100127.04;1696110;84;21055;-77
2021/07/30 01:37:12;;;;;;;8.90;4.85;;;;;;;17.06;57.62;100125.41;1696268;84;21083;-77
2021/07/30 01:39:38;;;;;;;6.60;4.80;;;;;;;17.04;57.69;100122.09;1696269;84;21140;-77
2021/07/30 01:42:05;;;;;;;8.23;5.10;;;;;;;17.03;57.76;100122.33;1696006;84;21047;-77
2021/07/30 01:44:31;;;;;;;10.88;6.42;;;;;;;17.01;57.83;100121.70;1696092;84;21010;-77
2021/07/30 01:46:57;;;;;;;14.07;7.78;;;;;;;16.97;57.89;100119.97;1696026;84;20980;-77
2021/07/30 01:49:23;;;;;;;16.87;8.53;;;;;;;16.94;57.97;100124.45;1696182;84;21488;-77
2021/07/30 01:51:49;;;;;;;13.03;6.95;;;;;;;16.92;58.04;100126.55;1696106;84;22129;-77
2021/07/30 01:54:15;;;;;;;13.35;5.65;;;;;;;16.90;58.11;100115.14;1696052;84;20987;-77
2021/07/30 01:56:42;;;;;;;8.23;5.65;;;;;;;16.88;58.18;100119.42;1696107;84;21043;-77
2021/07/30 01:59:11;;;;;;;8.68;5.28;;;;;;;16.87;58.24;100118.28;1696026;84;21019;-77
2021/07/30 02:01:37;;;;;;;13.88;6.80;;;;;;;16.83;58.31;100120.58;1696199;84;21035;-77
2021/07/30 02:04:03;;;;;;;11.90;6.58;;;;;;;16.79;58.39;100116.67;1696020;84;21175;-77
2021/07/30 02:06:29;;;;;;;9.03;6.20;;;;;;;16.75;58.45;100117.31;1696031;84;21064;-77
2021/07/30 02:08:57;;;;;;;10.23;5.60;;;;;;;16.69;58.56;100115.49;1696056;84;21047;-77
2021/07/30 02:11:23;;;;;;;8.13;5.00;;;;;;;16.66;58.69;100118.10;1696184;84;21071;-77
2021/07/30 02:16:33;;;;;;;10.20;4.58;;;;;;;16.54;58.89;100117.64;1696037;84;21178;-77
2021/07/30 02:18:59;;;;;;;6.92;4.37;;;;;;;16.48;59.00;100124.17;1695975;84;21015;-77
2021/07/30 02:21:26;;;;;;;7.85;3.62;;;;;;;16.41;59.11;100119.34;1695903;84;21011;-77
2021/07/30 02:23:52;;;;;;;9.75;4.33;;;;;;;16.33;59.19;100121.44;1696195;84;21019;-77
2021/07/30 02:26:18;;;;;;;10.72;5.08;;;;;;;16.26;59.34;100123.33;1695966;84;21003;-77
2021/07/30 02:28:44;;;;;;;8.95;6.22;;;;;;;16.19;59.44;100126.05;1696383;84;21192;-77
2021/07/30 02:31:10;;;;;;;11.00;5.33;;;;;;;16.13;59.56;100129.60;1695633;84;21022;-77
2021/07/30 02:33:36;;;;;;;11.50;5.83;;;;;;;16.08;59.67;100127.25;1695777;84;21015;-77
2021/07/30 02:36:02;;;;;;;12.93;5.37;;;;;;;16.01;59.78;100136.66;1696171;84;21089;-77
2021/07/30 02:38:28;;;;;;;9.70;5.15;;;;;;;15.95;59.90;100145.59;1696156;84;21065;-77
2021/07/30 02:40:55;;;;;;;9.28;4.90;;;;;;;15.88;60.05;100136.70;1696112;84;21149;-77
2021/07/30 02:43:21;;;;;;;7.08;4.62;;;;;;;15.85;60.15;100142.52;1695951;84;21060;-77
2021/07/30 02:45:47;;;;;;;14.33;4.90;;;;;;;15.80;60.27;100143.64;1696194;84;21079;-77
2021/07/30 02:48:13;;;;;;;8.95;4.78;;;;;;;15.74;60.43;100144.49;1696050;84;21004;-77
2021/07/30 02:50:39;;;;;;;8.78;5.03;;;;;;;15.67;60.56;100145.02;1696034;84;21023;-77
2021/07/30 02:53:06;;;;;;;8.10;4.50;;;;;;;15.62;60.71;100148.87;1695731;84;46902;-77
2021/07/30 02:55:32;;;;;;;11.78;5.20;;;;;;;15.55;60.86;100144.81;1696083;84;21469;-77
2021/07/30 02:57:58;;;;;;;11.95;5.22;;;;;;;15.48;61.01;100144.83;1695718;84;21000;-77
2021/07/30 03:00:24;;;;;;;8.48;6.17;;;;;;;15.43;61.13;100149.16;1695988;84;21535;-77
2021/07/30 03:02:50;;;;;;;9.60;6.78;;;;;;;15.38;61.27;100145.73;1696035;84;21528;-77
2021/07/30 03:05:17;;;;;;;11.35;7.65;;;;;;;15.32;61.40;100143.88;1695976;84;21920;-77
2021/07/30 03:07:43;;;;;;;17.23;8.40;;;;;;;15.28;61.53;100142.64;1695480;84;21003;-77
2021/07/30 03:10:09;;;;;;;15.98;9.70;;;;;;;15.24;61.67;100143.25;1696204;84;21054;-77
2021/07/30 03:12:36;;;;;;;19.30;9.88;;;;;;;15.19;61.81;100147.92;1696050;84;21495;-77
2021/07/30 03:15:02;;;;;;;14.63;7.55;;;;;;;15.15;61.96;100152.05;1696183;84;21023;-77
2021/07/30 03:17:28;;;;;;;11.80;6.58;;;;;;;15.09;62.10;100150.19;1695977;84;21959;-77
2021/07/30 03:19:54;;;;;;;13.65;6.40;;;;;;;15.05;62.25;100150.80;1695846;84;21003;-77
2021/07/30 03:22:20;;;;;;;9.38;6.22;;;;;;;15.00;62.37;100157.59;1680792;84;21018;-77
2021/07/30 03:24:46;;;;;;;9.55;5.53;;;;;;;14.96;62.51;100158.20;1673865;85;21026;-77
2021/07/30 03:27:12;;;;;;;9.95;6.15;;;;;;;14.94;62.66;100153.56;1673729;85;21014;-77
2021/07/30 03:29:39;;;;;;;10.40;5.85;;;;;;;14.93;62.79;100156.77;1673831;85;21167;-77
2021/07/30 03:32:05;;;;;;;16.42;7.97;;;;;;;14.94;62.88;100157.59;1673669;85;21015;-77
2021/07/30 03:34:33;;;;;;;17.52;9.35;;;;;;;14.94;63.00;100160.28;1673645;85;21495;-77
2021/07/30 03:37:00;;;;;;;15.40;9.35;;;;;;;14.96;63.10;100155.00;1673874;85;21006;-77
2021/07/30 03:39:27;;;;;;;17.37;8.70;;;;;;;14.99;63.19;100156.45;1673840;85;21074;-77
2021/07/30 03:41:53;;;;;;;12.13;7.83;;;;;;;15.02;63.43;100157.41;1673952;85;21788;-77
2021/07/30 03:44:19;;;;;;;19.40;7.97;;;;;;;15.04;63.37;100163.39;1673673;85;21026;-77
2021/07/30 03:46:46;;;;;;;13.78;6.08;;;;;;;15.05;63.47;100154.31;1673751;85;21018;-77
2021/07/30 03:49:12;;;;;;;12.05;7.22;;;;;;;15.09;63.49;100151.53;1673907;85;21083;-77
2021/07/30 03:51:38;;;;;;;7.87;5.55;;;;;;;15.11;63.68;100157.51;1673886;85;21625;-77
2021/07/30 03:54:04;;;;;;;7.95;5.58;;;;;;;15.15;63.72;100155.23;1673858;85;21859;-77
2021/07/30 03:56:30;;;;;;;7.28;4.95;;;;;;;15.18;63.78;100153.48;1673749;85;21006;-77
2021/07/30 03:58:56;;;;;;;7.72;4.70;;;;;;;15.21;63.87;100159.27;1673766;85;21549;-77
2021/07/30 04:01:22;;;;;;;9.45;5.78;;;;;;;15.28;63.93;100154.73;1673460;85;21006;-77
2021/07/30 04:03:50;;;;;;;17.50;7.87;;;;;;;15.68;64.17;100147.52;1673976;85;21026;-77
2021/07/30 04:06:16;;;;;;;15.93;7.28;;;;;;;16.35;64.10;100152.50;1673738;85;21175;-77
2021/07/30 04:08:43;;;;;;;10.98;6.17;;;;;;;16.88;63.83;100152.27;1673874;85;20995;-77
2021/07/30 04:11:09;;;;;;;15.53;8.65;;;;;;;17.79;63.66;100149.89;1673904;85;21025;-78
2021/07/30 04:13:35;;;;;;;15.72;7.90;;;;;;;18.76;63.11;100145.73;1673541;85;21539;-77
2021/07/30 04:16:04;;;;;;;9.13;5.65;;;;;;;19.69;62.54;100151.89;1673873;85;21081;-78
2021/07/30 04:18:30;;;;;;;11.15;5.00;;;;;;;20.59;61.63;100149.52;1673213;85;21186;-78
2021/07/30 04:20:56;;;;;;;20.48;13.00;;;;;;;21.28;60.81;100143.80;1673817;85;21474;-78
2021/07/30 04:23:23;;;;;;;11.10;6.15;;;;;;;21.94;59.99;100141.28;1644605;85;21045;-78
2021/07/30 04:25:49;;;;;;;9.75;4.58;;;;;;;22.61;59.26;100139.97;1673869;85;21006;-78
2021/07/30 04:28:15;;;;;;;5.42;4.25;;;;;;;23.21;58.25;100141.69;1673807;85;21069;-78
2021/07/30 04:30:41;;;;;;;8.85;4.47;;;;;;;23.64;57.20;100136.63;1673873;85;21778;-78
2021/07/30 04:33:09;;;;;;;10.43;4.90;;;;;;;24.20;56.22;100147.34;1673738;85;21002;-78
2021/07/30 04:35:36;;;;;;;10.15;4.35;;;;;;;24.70;55.20;100152.97;1673833;85;20998;-78
2021/07/30 04:38:02;;;;;;;10.28;5.00;;;;;;;24.45;54.10;100147.45;1673880;85;21507;-78
2021/07/30 04:40:28;;;;;;;8.98;4.90;;;;;;;24.87;53.67;100141.87;1673514;85;21062;-78
2021/07/30 04:42:55;;;;;;;9.45;4.70;;;;;;;25.35;52.50;100141.91;1673752;85;21793;-78
2021/07/30 04:45:21;;;;;;;10.05;3.92;;;;;;;25.51;51.79;100141.41;1673633;85;21029;-78
2021/07/30 04:47:47;;;;;;;7.03;3.40;;;;;;;25.91;50.76;100142.69;1673850;85;21471;-78
2021/07/30 04:50:13;;;;;;;7.70;3.77;;;;;;;25.50;49.69;100143.82;1673859;85;21514;-78
2021/07/30 04:52:39;;;;;;;12.78;5.22;;;;;;;24.28;49.18;100147.62;1673765;85;21321;-78
2021/07/30 04:55:06;;;;;;;9.40;3.47;;;;;;;23.21;49.51;100150.68;1673862;85;21591;-78
2021/07/30 04:57:32;;;;;;;9.55;4.12;;;;;;;22.99;49.64;100139.03;1673699;85;21006;-78
2021/07/30 04:59:58;;;;;;;5.72;4.00;;;;;;;22.99;49.83;100147.20;1673616;85;21030;-78
2021/07/30 05:02:24;;;;;;;12.28;4.37;;;;;;;23.02;49.84;100145.31;1673772;85;20998;-78
2021/07/30 05:04:55;;;;;;;13.65;3.95;;;;;;;22.99;49.80;100139.03;1673826;85;21065;-76
2021/07/30 05:07:23;;;;;;;4.90;3.17;;;;;;;22.89;49.79;100129.42;1673770;85;21462;-76
2021/07/30 05:09:49;;;;;;;6.97;3.50;;;;;;;22.66;49.79;100135.14;1673752;85;21022;-76
2021/07/30 05:12:15;;;;;;;9.80;3.98;;;;;;;22.16;49.66;100139.42;1674051;85;21530;-76
2021/07/30 05:14:41;;;;;;;7.35;5.28;;;;;;;21.43;49.86;100134.26;1673699;85;20990;-76
2021/07/30 05:17:07;;;;;;;6.62;4.30;;;;;;;20.93;50.21;100144.50;1674010;85;21090;-76
2021/07/30 05:19:33;;;;;;;8.30;5.12;;;;;;;20.39;50.39;100145.35;1673915;85;21129;-76
2021/07/30 05:21:59;;;;;;;9.95;4.33;;;;;;;19.97;50.63;100144.40;1680029;84;21024;-76
2021/07/30 05:24:25;;;;;;;8.48;4.92;;;;;;;19.66;50.96;100142.89;1696137;84;21060;-76
2021/07/30 05:26:51;;;;;;;10.63;5.22;;;;;;;19.50;51.25;100140.88;1696025;84;21067;-76
2021/07/30 05:29:17;;;;;;;10.00;4.95;;;;;;;19.30;51.59;100142.53;1696066;84;21091;-76
2021/07/30 05:31:43;;;;;;;12.68;5.03;;;;;;;19.08;51.85;100149.00;1696205;84;21160;-76
2021/07/30 05:34:09;;;;;;;20.37;6.20;;;;;;;18.86;52.27;100145.17;1696114;84;21540;-76
2021/07/30 05:36:35;;;;;;;8.58;5.28;;;;;;;18.86;52.60;100146.52;1696117;84;21054;-77
2021/07/30 05:39:01;;;;;;;6.75;4.60;;;;;;;19.09;52.93;100150.66;1695852;84;21071;-78
2021/07/30 05:41:27;;;;;;;11.93;5.05;;;;;;;19.53;53.14;100147.98;1696240;84;21507;-78
2021/07/30 05:43:53;;;;;;;10.38;5.25;;;;;;;20.09;53.24;100147.38;1696070;84;22164;-78
2021/07/30 05:46:19;;;;;;;10.48;5.05;;;;;;;20.20;53.20;100146.53;1695928;84;21078;-78
2021/07/30 05:48:46;;;;;;;7.33;5.17;;;;;;;20.09;53.34;100149.28;1696097;84;21019;-78
2021/07/30 05:51:13;;;;;;;13.83;5.00;;;;;;;20.59;53.45;100145.45;1696296;84;21004;-78
2021/07/30 05:53:40;;;;;;;7.25;4.42;;;;;;;21.17;53.43;100141.97;1696067;84;21078;-78
2021/07/30 05:56:06;;;;;;;6.22;4.65;;;;;;;21.50;53.21;100141.70;1696172;84;21041;-78
2021/07/30 05:58:32;;;;;;;12.37;4.45;;;;;;;21.88;53.11;100143.09;1695891;84;21014;-78
2021/07/30 06:00:58;;;;;;;6.58;4.03;;;;;;;22.17;52.82;100139.16;1695980;84;21499;-78
2021/07/30 06:03:25;;;;;;;7.40;3.60;;;;;;;22.39;52.53;100131.01;1696221;84;21010;-78
2021/07/30 06:05:51;;;;;;;9.35;4.05;;;;;;;22.60;52.22;100128.81;1696018;84;21034;-78
2021/07/30 06:08:17;;;;;;;9.30;4.55;;;;;;;22.78;51.89;100127.67;1696117;84;21504;-78
2021/07/30 06:10:43;;;;;;;10.03;3.92;;;;;;;22.88;51.56;100125.05;1696005;84;21503;-78
2021/07/30 06:13:09;;;;;;;7.45;3.77;;;;;;;22.91;51.15;100135.41;1695991;84;20927;-78
2021/07/30 06:15:35;;;;;;;6.78;3.52;;;;;;;22.87;50.77;100128.84;1695846;84;21058;-78
2021/07/30 06:18:03;;;;;;;7.12;4.75;;;;;;;22.91;50.59;100125.89;1696010;84;21039;-78
2021/07/30 06:20:30;;;;;;;6.40;3.60;;;;;;;22.93;50.33;100131.91;1696318;84;21751;-78
2021/07/30 06:22:57;;;;;;;7.20;4.50;;;;;;;23.15;50.20;100128.56;1695743;84;21015;-78
2021/07/30 06:25:24;;;;;;;5.65;3.20;;;;;;;23.24;49.96;100137.09;1695947;84;20947;-78
2021/07/30 06:27:50;;;;;;;10.28;4.30;;;;;;;23.45;49.85;100123.13;1695817;84;21499;-78
2021/07/30 06:30:16;;;;;;;5.50;3.33;;;;;;;23.53;49.45;100128.09;1695881;84;21434;-78
2021/07/30 06:32:42;;;;;;;5.45;3.33;;;;;;;23.50;49.04;100128.63;1695810;84;22457;-78
2021/07/30 06:35:09;;;;;;;5.70;3.45;;;;;;;23.35;48.63;100127.39;1695910;84;21040;-78
2021/07/30 06:37:36;;;;;;;4.05;2.77;;;;;;;23.35;48.49;100135.56;1713880;83;21662;-78
2021/07/30 06:40:03;;;;;;;4.55;2.80;;;;;;;23.35;48.18;100136.92;1717968;83;21019;-78
2021/07/30 06:42:32;;;;;;;5.20;3.42;;;;;;;23.26;47.87;100131.66;1724927;83;21018;-78
2021/07/30 06:44:58;;;;;;;5.60;3.10;;;;;;;23.32;47.84;100121.11;1698520;83;21735;-78
2021/07/30 06:47:24;;;;;;;5.05;3.00;;;;;;;23.49;47.69;100125.61;1724826;83;21424;-78
2021/07/30 06:49:50;;;;;;;6.75;2.75;;;;;;;23.62;47.68;100127.88;1724790;83;21011;-78
2021/07/30 06:52:16;;;;;;;11.65;3.67;;;;;;;23.73;47.56;100120.06;1720011;83;21054;-78
2021/07/30 06:54:43;;;;;;;6.08;2.83;;;;;;;23.98;47.51;100123.47;1707056;83;21062;-78
2021/07/30 06:57:09;;;;;;;6.85;2.60;;;;;;;24.18;47.28;100120.33;1712014;83;21878;-78
2021/07/30 06:59:35;;;;;;;4.55;2.92;;;;;;;24.24;47.03;100123.34;1705678;83;20992;-78
2021/07/30 07:02:02;;;;;;;4.33;2.90;;;;;;;24.32;46.81;100118.76;1719393;83;20995;-77
2021/07/30 07:04:28;;;;;;;8.55;4.30;;;;;;;24.36;46.59;100116.31;1715293;83;21453;-78
2021/07/30 07:06:54;;;;;;;6.70;2.90;;;;;;;24.27;46.25;100115.20;1703887;81;21038;-79
2021/07/30 07:09:20;;;;;;;4.55;2.25;;;;;;;24.19;46.06;100106.99;1712302;83;21865;-79
2021/07/30 07:11:46;;;;;;;8.00;2.85;;;;;;;24.18;45.85;100108.07;1711579;83;21488;-79
2021/07/30 07:14:13;;;;;;;10.28;2.90;;;;;;;24.12;45.57;100115.92;1705056;82;21625;-79
2021/07/30 07:16:42;;;;;;;5.37;2.45;;;;;;;23.99;45.41;100116.41;1679305;83;21025;-79
2021/07/30 07:19:12;;;;;;;;;;;;;;;23.99;45.38;100106.05;1682917;85;21910;-79
2021/07/30 07:21:38;;;;;;;4.28;2.62;;;;;;;24.00;45.20;100107.13;1705579;84;21852;-79
2021/07/30 07:24:05;;;;;;;7.42;2.50;;;;;;;23.99;45.01;100106.05;1706111;84;20958;-79
2021/07/30 07:26:32;;;;;;;8.30;2.80;;;;;;;24.05;44.86;100103.08;1696755;84;21025;-79
2021/07/30 07:28:58;;;;;;;6.30;2.50;;;;;;;24.07;44.66;100101.44;1686170;84;21491;-79
2021/07/30 07:31:24;;;;;;;6.90;2.35;;;;;;;24.12;44.57;100095.48;1685788;84;21418;-80
2021/07/30 07:33:50;;;;;;;3.70;2.25;;;;;;;24.23;44.46;100100.47;1678465;82;22752;-79
2021/07/30 07:36:16;;;;;;;4.20;2.12;;;;;;;24.34;44.29;100096.70;1677559;85;21006;-79
2021/07/30 07:38:43;;;;;;;2.17;1.80;;;;;;;24.41;44.16;100099.17;1679303;84;20953;-79
2021/07/30 07:41:10;;;;;;;4.00;1.70;;;;;;;24.55;43.88;100092.13;1689239;84;20953;-79
2021/07/30 07:43:36;;;;;;;3.02;1.87;;;;;;;24.62;43.62;100088.59;1683118;84;21097;-79
2021/07/30 07:46:03;;;;;;;6.47;1.95;;;;;;;24.82;43.57;100088.08;1656400;85;21918;-78
2021/07/30 07:48:29;;;;;;;9.25;4.12;;;;;;;24.80;42.98;100086.18;1677285;85;21409;-78
2021/07/30 07:50:55;;;;;;;4.70;1.92;;;;;;;24.69;42.48;100088.61;1690094;84;20902;-78
2021/07/30 07:53:21;;;;;;;5.03;2.67;;;;;;;24.56;42.07;100082.86;1677846;84;21342;-78
2021/07/30 07:55:48;;;;;;;5.97;1.67;;;;;;;24.60;42.05;100086.66;1677823;84;21025;-78
2021/07/30 07:58:14;;;;;;;6.67;3.25;;;;;;;24.76;41.88;100085.62;1682439;84;21699;-78
2021/07/30 08:00:41;;;;;;;8.98;1.87;;;;;;;24.82;41.70;100084.53;1695380;84;21028;-78
2021/07/30 08:03:07;;;;;;;3.00;1.85;;;;;;;24.90;41.55;100088.13;1699188;84;21021;-78
2021/07/30 08:05:33;;;;;;;5.78;1.90;;;;;;;24.89;41.43;100086.48;1688010;84;21431;-78
2021/07/30 08:07:59;;;;;;;5.05;2.10;;;;;;;24.99;41.35;100087.02;1702729;82;21019;-78
2021/07/30 08:10:25;;;;;;;5.78;2.20;;;;;;;25.00;41.04;100086.77;1688051;80;21936;-75
2021/07/30 08:12:51;;;;;;;6.28;3.05;;;;;;;25.16;41.01;100080.75;1766102;81;21367;-78
2021/07/30 08:15:17;;;;;;;9.95;3.45;;;;;;;25.28;40.83;100075.30;1715042;81;21071;-77
2021/07/30 08:17:43;;;;;;;8.68;2.10;;;;;;;25.33;40.66;100078.00;1709477;83;21039;-78
2021/07/30 08:20:10;;;;;;;6.60;2.55;;;;;;;25.48;40.81;100080.45;1709741;82;21027;-78
2021/07/30 08:22:38;;;;;;;9.50;1.90;;;;;;;25.61;40.51;100080.75;1706020;82;22655;-78
2021/07/30 08:25:05;;;;;;;4.90;2.50;;;;;;;25.45;40.26;100079.63;1689906;83;21030;-78
2021/07/30 08:27:31;;;;;;;9.15;2.40;;;;;;;25.33;40.11;100075.28;1717223;82;21006;-79
2021/07/30 08:29:57;;;;;;;6.50;2.67;;;;;;;25.38;39.89;100070.91;1710794;83;21001;-78
2021/07/30 08:32:23;;;;;;;5.25;2.15;;;;;;;25.21;39.60;100071.20;1699532;84;21510;-78
2021/07/30 08:34:49;;;;;;;4.47;2.10;;;;;;;25.08;39.48;100072.58;1685032;84;22546;-77
2021/07/30 08:37:16;;;;;;;6.17;2.10;;;;;;;24.95;39.51;100065.46;1715497;82;21092;-78
2021/07/30 08:39:42;;;;;;;5.33;1.47;;;;;;;25.01;39.49;100065.22;1724438;82;20933;-78
2021/07/30 08:42:08;;;;;;;3.60;1.62;;;;;;;24.79;39.01;100071.44;1706257;82;21335;-77
2021/07/30 08:44:34;;;;;;;6.08;2.35;;;;;;;24.80;39.25;100075.81;1711736;83;21075;-77
2021/07/30 08:47:00;;;;;;;7.65;2.10;;;;;;;24.88;39.23;100069.83;1705844;82;21991;-78
2021/07/30 08:49:26;;;;;;;7.92;1.85;;;;;;;24.97;39.18;100070.94;1707709;83;21042;-77
2021/07/30 08:52:10;;;;;;;9.58;2.98;;;;;;;25.04;39.14;100062.48;1707526;83;21399;-78
2021/07/30 08:54:38;;;;;;;10.43;1.95;;;;;;;25.19;39.20;100059.18;1704755;84;21080;-77
2021/07/30 08:57:09;;;;;;;5.35;2.02;;;;;;;25.45;39.24;100057.79;1715406;82;21012;-78
2021/07/30 08:59:39;;;;;;;3.42;1.80;;;;;;;25.50;39.04;100057.80;1709054;83;21866;-77
2021/07/30 09:02:06;;;;;;;8.58;2.12;;;;;;;25.48;38.95;100056.69;1722402;82;21091;-80
2021/07/30 09:04:33;;;;;;;13.78;2.33;;;;;;;25.52;38.96;100058.36;1684212;83;21992;-80
2021/07/30 09:07:02;;;;;;;5.47;1.70;;;;;;;25.66;38.97;100053.95;1729753;82;21400;-78
2021/07/30 09:09:27;;;;;;;8.53;2.10;;;;;;;25.74;38.86;100050.66;1719489;82;21482;-78
2021/07/30 09:11:58;;;;;;;4.03;1.65;;;;;;;25.81;38.84;100049.81;1711186;82;22610;-78
2021/07/30 09:14:43;;;;;;;2.87;1.87;;;;;;;25.39;38.64;100044.70;1693671;84;20961;-78
2021/07/30 09:17:10;;;;;;;3.12;1.77;;;;;;;25.21;38.85;100043.91;1684136;84;21494;-78
2021/07/30 09:20:01;;;;;;;5.85;1.72;;;;;;;25.34;39.15;100041.42;1725825;82;21130;-78
2021/07/30 09:22:27;;;;;;;6.83;2.10;;;;;;;25.53;39.00;100032.15;1712311;82;21474;-78
2021/07/30 09:24:56;;;;;;;8.00;2.12;;;;;;;25.16;38.60;100041.16;1713032;82;22245;-77
2021/07/30 09:27:22;;;;;;;6.80;1.50;;;;;;;24.78;38.60;100041.14;1727832;82;21428;-79
2021/07/30 09:29:48;;;;;;;5.67;1.72;;;;;;;24.58;38.67;100038.41;1689762;84;21031;-78
2021/07/30 09:32:16;;;;;;;8.38;2.33;;;;;;;24.58;38.75;100036.50;1717951;82;21022;-77
2021/07/30 09:34:47;;;;;;;4.85;1.90;;;;;;;24.34;38.82;100036.73;1714778;82;21011;-78
2021/07/30 09:37:24;;;;;;;13.72;2.33;;;;;;;24.49;39.11;100034.01;1654002;86;21838;-78
2021/07/30 09:39:51;;;;;;;7.62;2.55;;;;;;;24.62;38.81;100030.78;1677804;84;20985;-78
2021/07/30 09:42:33;;;;;;;6.95;1.77;;;;;;;24.50;38.92;100021.20;1693658;84;21040;-78
2021/07/30 09:45:08;;;;;;;8.75;2.02;;;;;;;24.55;38.93;100024.77;1694073;83;21034;-78
2021/07/30 09:47:47;;;;;;;7.95;2.50;;;;;;;24.38;38.89;100014.66;1693434;84;21440;-78
2021/07/30 09:50:13;;;;;;;6.05;2.22;;;;;;;24.18;39.17;100011.86;1694768;84;21764;-77
2021/07/30 09:52:41;;;;;;;9.40;2.80;;;;;;;24.41;39.37;100004.58;1692101;84;21463;-78
2021/07/30 09:55:13;;;;;;;7.30;1.90;;;;;;;24.38;39.24;100007.02;1696681;82;21479;-78
2021/07/30 09:57:42;;;;;;;5.37;2.15;;;;;;;24.40;39.31;100007.02;1689084;84;20967;-78
2021/07/30 10:00:12;;;;;;;12.50;1.60;;;;;;;24.40;39.20;100002.11;1681376;84;21554;-78
2021/07/30 10:02:40;;;;;;;4.50;1.85;;;;;;;24.19;39.02;100006.16;1682168;85;21698;-78
2021/07/30 10:05:12;;;;;;;3.65;1.55;;;;;;;23.88;38.90;100003.03;1720340;82;21053;-77
2021/07/30 10:07:41;;;;;;;5.17;1.77;;;;;;;23.84;39.16;100007.37;1711664;83;21480;-78
2021/07/30 10:10:18;;;;;;;6.42;1.90;;;;;;;24.04;39.25;100001.98;1723873;81;21187;-78
2021/07/30 10:12:49;;;;;;;3.25;2.10;;;;;;;24.09;39.20;100004.73;1700282;84;20983;-78
2021/07/30 10:15:16;;;;;;;2.65;1.52;;;;;;;24.45;39.41;99996.67;1687998;84;21671;-77
2021/07/30 10:17:48;;;;;;;3.12;1.42;;;;;;;24.71;39.36;99990.95;1710105;83;21000;-77
2021/07/30 10:20:16;;;;;;;6.08;2.15;;;;;;;24.53;38.91;99994.21;1701619;84;20992;-77
2021/07/30 10:22:59;;;;;;;5.37;2.25;;;;;;;24.44;39.07;99992.30;1697283;84;21420;-77
2021/07/30 10:25:31;;;;;;;7.20;1.98;;;;;;;24.27;39.15;99996.10;1687249;83;20991;-77
2021/07/30 10:28:11;;;;;;;7.03;2.20;;;;;;;24.62;39.45;99992.60;1682597;85;22378;-77
2021/07/30 10:30:58;;;;;;;7.65;2.35;;;;;;;24.81;39.12;99982.77;1654899;84;21029;-75
2021/07/30 10:33:40;;;;;;;5.47;1.80;;;;;;;24.71;38.76;99981.95;1706672;83;21583;-76
2021/07/30 10:36:15;;;;;;;10.35;2.77;;;;;;;24.62;38.86;99978.14;1682017;84;21031;-76
2021/07/30 10:38:41;;;;;;;6.72;2.15;;;;;;;24.82;38.91;99978.14;1692083;84;21006;-77
2021/07/30 10:41:13;;;;;;;6.03;1.98;;;;;;;25.04;38.78;99984.16;1697816;84;21961;-77
2021/07/30 10:44:03;;;;;;;5.80;1.98;;;;;;;24.91;38.63;99981.17;1699956;84;21068;-77
2021/07/30 10:46:28;;;;;;;;;;;;;;;24.88;38.62;99982.52;1702235;84;21049;-77
2021/07/30 10:48:55;;;;;;;5.10;2.10;;;;;;;24.62;38.52;99978.14;1699939;83;20336;-77
2021/07/30 10:51:24;;;;;;;4.12;2.22;;;;;;;24.62;38.79;99980.88;1683648;85;21033;-77
2021/07/30 10:53:55;;;;;;;10.82;2.83;;;;;;;24.87;38.77;99982.27;1695457;84;21778;-77
2021/07/30 10:56:32;;;;;;;9.20;2.00;;;;;;;24.65;38.66;99974.87;1695051;84;21047;-76
2021/07/30 10:59:06;;;;;;;172.20;9.78;;;;;;;24.35;38.81;99976.47;1695445;84;21026;-76
2021/07/30 11:01:43;;;;;;;4.83;2.08;;;;;;;24.44;39.06;99970.48;1694952;84;21480;-76
2021/07/30 11:04:10;;;;;;;6.10;2.52;;;;;;;24.59;38.91;99966.42;1695392;84;21019;-76
2021/07/30 11:06:45;;;;;;;21.15;3.05;;;;;;;24.77;38.74;99965.88;1695431;84;22519;-76
2021/07/30 11:09:17;;;;;;;4.78;2.17;;;;;;;25.06;38.84;99961.49;1695436;84;21316;-77
2021/07/30 11:11:54;;;;;;;10.03;2.55;;;;;;;25.24;38.61;99964.19;1694980;84;21014;-76
2021/07/30 11:14:31;;;;;;;6.17;1.85;;;;;;;25.30;38.57;99957.61;1694723;84;21011;-77
2021/07/30 11:17:01;;;;;;;4.22;2.33;;;;;;;25.35;38.54;99952.15;1693876;84;21069;-77
2021/07/30 11:19:35;;;;;;;4.58;2.83;;;;;;;25.45;38.54;99950.75;1695017;84;21754;-77
2021/07/30 11:22:04;;;;;;;5.60;2.00;;;;;;;25.64;38.61;99952.36;1693769;84;21045;-77
2021/07/30 11:24:30;;;;;;;;;;;;;;;25.68;38.37;99950.16;1696446;84;21034;-77
2021/07/30 11:26:56;;;;;;;10.90;2.33;;;;;;;25.57;38.03;99947.20;1712249;83;20724;-77
2021/07/30 11:29:23;;;;;;;6.60;1.80;;;;;;;25.54;38.16;99938.74;1712393;83;21093;-77